Time;durP1;ratioP1;P1;durP2;ratioP2;P2;SDS_P1;SDS_P2;PMS_P1;PMS_P2;Temp;Humidity;BMP_temperature;BMP_pressure;BME280_temperature;BME280_humidity;BME280_pressure;Samples;Min_cycle;Max_cycle;Signal;HPM_P1;HPM_P2
2024/04/15 00:02:24;;;;;;;;;;;;;;;24.73;42.15;94128.03;5343276;26;9233;-62
2024/04/15 00:04:50;;;;;;;;;;;;;;;24.73;42.80;94127.31;5343964;26;6996;-62
2024/04/15 00:07:17;;;;;;;;;;;;;;;24.64;42.56;94114.63;5352396;26;7173;-62
2024/04/15 00:10:03;;;;;;;;;;;;;;;24.70;42.84;94123.59;5374688;26;7116;-61
2024/04/15 00:12:29;;;;;;;;;;;;;;;24.65;42.55;94122.38;5311297;26;9473;-62
2024/04/15 00:14:55;;;;;;;;;;;;;;;24.63;42.86;94111.13;5312374;26;7141;-61
2024/04/15 00:17:21;;;;;;;;;;;;;;;24.65;42.75;94097.63;5304218;26;7112;-61
2024/04/15 00:19:51;;;;;;;;;;;;;;;24.59;42.62;94096.91;5308413;26;7582;-60
2024/04/15 00:22:29;;;;;;;;;;;;;;;24.68;42.93;94096.56;5339499;26;7301;-60
2024/04/15 00:25:06;;;;;;;;;;;;;;;24.62;42.89;94087.63;5354367;26;7755;-57
2024/04/15 00:27:36;;;;;;;;;;;;;;;24.60;42.83;94075.63;5339469;26;7586;-56
2024/04/15 00:30:13;;;;;;;;;;;;;;;24.66;42.82;94082.59;5354896;26;8970;-56
2024/04/15 00:32:54;;;;;;;;;;;;;;;24.62;42.71;94082.13;5310763;26;7556;-56
2024/04/15 00:35:22;;;;;;;;;;;;;;;24.63;42.59;94083.63;5364062;26;7499;-57
2024/04/15 00:37:55;;;;;;;;;;;;;;;24.65;42.68;94083.88;5441555;26;8049;-57
2024/04/15 00:40:31;;;;;;;;;;;;;;;24.66;42.49;94093.59;5447971;26;7143;-57
2024/04/15 00:43:10;;;;;;;;;;;;;;;24.57;42.72;94082.94;5448325;26;10100;-56
2024/04/15 00:45:41;;;;;;;;;;;;;;;24.60;42.74;94073.66;5430034;26;9100;-56
2024/04/15 00:48:20;;;;;;;;;;;;;;;24.53;42.69;94056.97;5443707;26;7546;-57
2024/04/15 00:50:49;;;;;;;;;;;;;;;24.62;42.64;94067.66;5448417;26;7300;-57
2024/04/15 00:53:21;;;;;;;;;;;;;;;24.61;42.77;94055.16;5440756;26;7478;-57
2024/04/15 00:56:02;;;;;;;;;;;;;;;24.53;42.36;94048.72;5419228;26;7590;-57
2024/04/15 00:58:38;;;;;;;;;;;;;;;24.49;42.62;94040.72;5447956;26;6974;-57
2024/04/15 01:01:18;;;;;;;;;;;;;;;24.55;42.59;94046.22;5447705;26;6971;-57
2024/04/15 01:04:22;;;;;;;;;;;;;;;24.57;42.48;94044.44;5446418;26;8210;-57
2024/04/15 01:06:57;;;;;;;;;;;;;;;24.50;42.36;94036.00;5339123;26;7530;-57
2024/04/15 01:09:34;;;;;;;;;;;;;;;24.49;42.48;94040.00;5353983;26;8577;-57
2024/04/15 01:12:03;;;;;;;;;;;;;;;24.53;42.31;94032.22;5339816;26;6884;-57
2024/04/15 01:14:29;;;;;;;;;;;;;;;24.51;42.53;94029.97;5372881;26;7801;-57
2024/04/15 01:17:00;;;;;;;;;;;;;;;24.51;42.56;94027.22;5346707;26;7003;-56
2024/04/15 01:19:27;;;;;;;;;;;;;;;24.41;42.58;94015.06;5373676;26;7488;-57
2024/04/15 01:21:59;;;;;;;;;;;;;;;24.46;42.83;94019.78;5366199;26;7844;-57
2024/04/15 01:24:47;;;;;;;;;;;;;;;24.50;42.61;94031.25;5344464;26;7659;-57
2024/04/15 01:27:16;;;;;;;;;;;;;;;24.50;42.29;94034.00;5340062;26;7181;-57
2024/04/15 01:29:52;;;;;;;;;;;;;;;24.51;42.40;94029.97;5374009;26;6975;-57
2024/04/15 01:32:21;;;;;;;;;;;;;;;24.41;42.88;94023.31;5366622;26;7407;-57
2024/04/15 01:34:51;;;;;;;;;;;;;;;24.41;42.06;94014.31;5344231;26;7046;-61
2024/04/15 01:37:20;;;;;;;;;;;;;;;24.50;42.52;94023.00;5399458;26;7052;-60
2024/04/15 01:39:51;;;;;;;;;;;;;;;24.48;42.34;94022.75;5447531;26;7234;-61
2024/04/15 01:42:18;;;;;;;;;;;;;;;24.46;42.48;94013.53;5447234;26;7059;-61
2024/04/15 01:44:48;;;;;;;;;;;;;;;24.46;42.22;94016.28;5447072;26;8824;-61
2024/04/15 01:47:29;;;;;;;;;;;;;;;24.39;42.32;94003.09;5446730;26;7408;-61
2024/04/15 01:49:57;;;;;;;;;;;;;;;24.41;42.49;94004.06;5409459;26;7416;-61
2024/04/15 01:52:23;;;;;;;;;;;;;;;24.44;42.53;94005.06;5437031;26;7337;-61
2024/04/15 01:54:50;;;;;;;;;;;;;;;24.45;42.23;94015.53;5390951;26;7346;-61
2024/04/15 01:57:16;;;;;;;;;;;;;;;24.37;42.26;93991.84;5414368;26;7358;-61
2024/04/15 01:59:42;;;;;;;;;;;;;;;24.36;42.54;93980.13;5439762;26;7058;-61
2024/04/15 02:02:13;;;;;;;;;;;;;;;24.39;42.48;93983.84;5437234;26;9018;-61
2024/04/15 02:04:39;;;;;;;;;;;;;;;24.35;41.97;93977.88;5419822;26;7045;-61
2024/04/15 02:07:08;;;;;;;;;;;;;;;24.31;42.43;93969.94;5430718;26;7136;-61
2024/04/15 02:09:34;;;;;;;;;;;;;;;24.35;41.96;93970.41;5447009;26;7608;-61
2024/04/15 02:12:01;;;;;;;;;;;;;;;24.42;42.20;93988.31;5446340;26;7403;-61
2024/04/15 02:14:27;;;;;;;;;;;;;;;24.36;42.08;93971.88;5445755;26;7695;-61
2024/04/15 02:16:55;;;;;;;;;;;;;;;24.43;42.01;93978.81;5446536;26;9805;-61
2024/04/15 02:19:23;;;;;;;;;;;;;;;24.37;41.95;93965.13;5445753;26;7420;-61
2024/04/15 02:21:50;;;;;;;;;;;;;;;24.44;42.09;93969.31;5445588;26;9040;-61
2024/04/15 02:24:27;;;;;;;;;;;;;;;24.39;41.90;93959.09;5417422;26;9153;-61
2024/04/15 02:27:02;;;;;;;;;;;;;;;24.42;42.10;93956.09;5447864;26;7092;-61
2024/04/15 02:29:42;;;;;;;;;;;;;;;24.44;42.24;93959.06;5447876;26;7077;-61
2024/04/15 02:32:30;;;;;;;;;;;;;;;24.43;42.19;93965.06;5450217;26;7342;-61
2024/04/15 02:34:56;;;;;;;;;;;;;;;24.29;41.92;93947.72;5449285;26;8151;-61
2024/04/15 02:37:35;;;;;;;;;;;;;;;24.39;41.79;93967.34;5413107;26;7009;-61
2024/04/15 02:40:12;;;;;;;;;;;;;;;24.41;42.22;93975.81;5423628;26;7077;-61
2024/04/15 02:42:43;;;;;;;;;;;;;;;24.40;41.75;93963.34;5431148;26;7720;-61
2024/04/15 02:45:09;;;;;;;;;;;;;;;24.37;41.84;93959.63;5448766;26;7116;-61
2024/04/15 02:48:03;;;;;;;;;;;;;;;24.42;41.83;93978.09;5445252;26;7255;-61
2024/04/15 02:50:43;;;;;;;;;;;;;;;24.31;42.09;93969.94;5449750;26;7377;-61
2024/04/15 02:53:14;;;;;;;;;;;;;;;24.40;41.86;93996.34;5418693;26;7369;-61
2024/04/15 02:56:26;;;;;;;;;;;;;;;24.40;41.81;94005.31;5449063;26;7986;-61
2024/04/15 02:59:05;;;;;;;;;;;;;;;24.34;42.03;93992.88;5447268;26;7554;-61
2024/04/15 03:01:40;;;;;;;;;;;;;;;24.40;41.80;93999.09;5417679;26;7991;-61
2024/04/15 03:04:07;;;;;;;;;;;;;;;24.30;41.91;93998.66;5449553;26;7063;-60
2024/04/15 03:06:46;;;;;;;;;;;;;;;24.38;41.81;93996.84;5449462;26;7347;-60
2024/04/15 03:09:28;;;;;;;;;;;;;;;24.41;41.96;93987.56;5409277;26;7939;-60
2024/04/15 03:11:54;;;;;;;;;;;;;;;24.41;42.09;93984.81;5429747;26;7129;-60
2024/04/15 03:14:22;;;;;;;;;;;;;;;24.38;41.64;93971.38;5423484;26;9122;-61
2024/04/15 03:16:51;;;;;;;;;;;;;;;24.38;41.84;93982.38;5426963;26;8012;-60
2024/04/15 03:19:26;;;;;;;;;;;;;;;24.45;41.58;93981.78;5449382;26;9376;-60
2024/04/15 03:21:54;;;;;;;;;;;;;;;24.46;41.84;93988.78;5449880;26;7546;-60
2024/04/15 03:24:20;;;;;;;;;;;;;;;24.43;41.77;93990.56;5447833;26;7697;-60
2024/04/15 03:26:47;;;;;;;;;;;;;;;24.38;41.89;93960.38;5449158;26;7394;-60
2024/04/15 03:29:40;;;;;;;;;;;;;;;24.44;41.71;93980.31;5418423;26;7317;-60
2024/04/15 03:32:18;;;;;;;;;;;;;;;24.44;41.93;93977.56;5437095;26;9593;-60
2024/04/15 03:34:53;;;;;;;;;;;;;;;24.44;41.69;93970.06;5447447;26;8979;-61
2024/04/15 03:37:20;;;;;;;;;;;;;;;24.42;42.13;93963.59;5417846;26;7383;-60
2024/04/15 03:40:20;;;;;;;;;;;;;;;24.45;41.67;93966.03;5448189;26;7068;-60
2024/04/15 03:42:49;;;;;;;;;;;;;;;24.40;41.59;93957.88;5305566;27;7271;-61
2024/04/15 03:45:19;;;;;;;;;;;;;;;24.39;41.80;93950.84;5305881;27;9026;-60
2024/04/15 03:47:48;;;;;;;;;;;;;;;24.34;41.74;93966.13;5304018;27;7286;-60
2024/04/15 03:50:15;;;;;;;;;;;;;;;24.44;41.62;93959.06;5274169;27;9052;-61
2024/04/15 03:52:43;;;;;;;;;;;;;;;24.43;41.80;93962.31;5301819;27;7172;-60
2024/04/15 03:55:20;;;;;;;;;;;;;;;24.42;41.85;93963.59;5322078;26;7064;-61
2024/04/15 03:57:55;;;;;;;;;;;;;;;24.35;41.73;93953.16;5317232;26;7130;-60
2024/04/15 04:00:23;;;;;;;;;;;;;;;24.41;42.05;93970.34;5275833;27;7433;-60
2024/04/15 04:02:58;;;;;;;;;;;;;;;24.41;41.79;93973.09;5305020;27;8576;-62
2024/04/15 04:05:24;;;;;;;;;;;;;;;24.37;41.64;93969.88;5284237;26;7200;-58
2024/04/15 04:07:51;;;;;;;;;;;;;;;24.33;41.85;93959.16;5305392;27;7627;-59
2024/04/15 04:10:17;;;;;;;;;;;;;;;24.41;41.32;93968.34;5305021;27;9042;-59
2024/04/15 04:12:43;;;;;;;;;;;;;;;24.38;41.89;93958.34;5276124;27;7672;-58
2024/04/15 04:15:09;;;;;;;;;;;;;;;24.41;42.09;93957.34;5303817;27;9449;-58
2024/04/15 04:17:40;;;;;;;;;;;;;;;24.39;41.58;93956.34;5325905;26;7010;-61
2024/04/15 04:20:07;;;;;;;;;;;;;;;24.40;41.93;93947.59;5448016;26;7264;-62
2024/04/15 04:22:34;;;;;;;;;;;;;;;24.42;43.57;93939.59;5448244;26;7101;-61
2024/04/15 04:25:09;;;;;;;;;;;;;;;24.51;46.25;93963.25;5448022;26;7670;-61
2024/04/15 04:27:36;;;;;;;;;;;;;;;24.85;67.97;93958.19;5446672;26;7585;-61
2024/04/15 04:30:10;;;;;;;;;;;;;;;25.35;70.06;93947.38;5448198;26;7328;-62
2024/04/15 04:32:41;;;;;;;;;;;;;;;25.91;69.08;93950.13;5404324;26;7385;-62
2024/04/15 04:35:12;;;;;;;;;;;;;;;26.27;68.23;93942.34;5448298;26;8833;-62
2024/04/15 04:37:47;;;;;;;;;;;;;;;26.63;67.30;93944.22;5447848;26;7705;-61
2024/04/15 04:40:42;;;;;;;;;;;;;;;26.98;65.94;93956.16;5455873;26;7265;-62
2024/04/15 04:43:09;;;;;;;;;;;;;;;27.17;64.85;93948.53;5357595;26;7345;-62
2024/04/15 04:45:40;;;;;;;;;;;;;;;27.25;56.46;93939.06;5310280;26;7616;-61
2024/04/15 04:48:39;;;;;;;;;;;;;;;27.26;54.00;93942.56;5339369;26;7093;-61
2024/04/15 04:51:25;;;;;;;;;;;;;;;27.00;46.65;93909.47;5210116;27;7033;-59
2024/04/15 04:53:55;;;;;;;;;;;;;;;26.38;44.99;93925.63;5188797;27;7024;-59
2024/04/15 04:56:24;;;;;;;;;;;;;;;25.84;44.72;93937.69;5206068;27;7992;-58
2024/04/15 04:58:50;;;;;;;;;;;;;;;25.50;44.06;93927.66;5181848;27;7109;-59
2024/04/15 05:01:18;;;;;;;;;;;;;;;25.31;43.93;93927.66;5210463;27;8393;-58
2024/04/15 05:03:49;;;;;;;;;;;;;;;25.13;44.17;93918.09;5216775;27;7309;-57
2024/04/15 05:06:46;;;;;;;;;;;;;;;25.12;43.83;93929.66;5186587;27;9758;-59
2024/04/15 05:09:14;;;;;;;;;;;;;;;25.01;44.20;93930.50;5168064;27;7203;-58
2024/04/15 05:11:46;;;;;;;;;;;;;;;25.01;44.23;93929.78;5138558;27;7440;-59
2024/04/15 05:14:12;;;;;;;;;;;;;;;24.84;43.81;93915.47;5137775;27;7357;-58
2024/04/15 05:16:40;;;;;;;;;;;;;;;24.86;44.91;93929.44;5138073;27;6987;-57
2024/04/15 05:19:08;;;;;;;;;;;;;;;24.86;45.39;93923.94;5160495;27;7191;-57
2024/04/15 05:21:47;;;;;;;;;;;;;;;24.79;45.37;93910.75;5186662;27;7667;-56
2024/04/15 05:24:13;;;;;;;;;;;;;;;24.82;44.58;93926.22;5144508;27;7984;-57
2024/04/15 05:26:42;;;;;;;;;;;;;;;24.79;44.44;93935.50;5189097;27;7736;-58
2024/04/15 05:29:18;;;;;;;;;;;;;;;24.70;44.44;93920.06;5275821;27;7366;-59
2024/04/15 05:31:56;;;;;;;;;;;;;;;24.62;44.52;93914.41;5320846;26;7675;-58
2024/04/15 05:34:22;;;;;;;;;;;;;;;24.70;44.51;93933.81;5312720;26;7097;-59
2024/04/15 05:36:49;;;;;;;;;;;;;;;24.66;44.54;93925.13;5307222;27;7167;-58
2024/04/15 05:39:28;;;;;;;;;;;;;;;24.58;44.62;93921.44;5307274;27;7269;-59
2024/04/15 05:42:06;;;;;;;;;;;;;;;24.58;44.28;93913.94;5297428;27;7862;-59
2024/04/15 05:44:32;;;;;;;;;;;;;;;24.61;44.43;93918.41;5281023;26;7522;-58
2024/04/15 05:46:59;;;;;;;;;;;;;;;24.62;44.53;93919.16;5449879;26;9810;-58
2024/04/15 05:49:26;;;;;;;;;;;;;;;24.56;44.50;93916.47;5432105;26;7235;-59
2024/04/15 05:51:52;;;;;;;;;;;;;;;24.63;44.73;93917.88;5436088;26;7291;-58
2024/04/15 05:54:30;;;;;;;;;;;;;;;24.59;44.37;93906.44;5449817;26;8561;-59
2024/04/15 05:56:56;;;;;;;;;;;;;;;24.64;44.07;93909.13;5384956;26;7134;-58
2024/04/15 05:59:23;;;;;;;;;;;;;;;24.55;44.11;93897.75;5450992;26;7056;-57
2024/04/15 06:01:50;;;;;;;;;;;;;;;24.60;44.29;93905.16;5450424;26;7133;-56
2024/04/15 06:04:26;;;;;;;;;;;;;;;24.55;44.12;93889.50;5449734;26;7401;-56
2024/04/15 06:07:25;;;;;;;;;;;;;;;24.57;44.25;93895.97;5428405;26;8914;-57
2024/04/15 06:09:53;;;;;;;;;;;;;;;24.57;43.87;93898.72;5375908;26;8429;-57
2024/04/15 06:12:19;;;;;;;;;;;;;;;24.56;44.32;93899.97;5343225;26;7289;-57
2024/04/15 06:14:48;;;;;;;;;;;;;;;24.50;44.13;93887.53;5346830;26;9247;-61
2024/04/15 06:17:28;;;;;;;;;;;;;;;24.53;44.06;93887.22;5375602;26;7129;-61
2024/04/15 06:20:12;;;;;;;;;;;;;;;24.52;44.43;93888.50;5347432;26;7093;-61
2024/04/15 06:22:48;;;;;;;;;;;;;;;24.51;43.63;93884.25;5376053;26;7201;-61
2024/04/15 06:25:18;;;;;;;;;;;;;;;24.49;43.89;93884.03;5363122;26;8087;-60
2024/04/15 06:27:48;;;;;;;;;;;;;;;24.54;43.96;93893.47;5375527;26;7108;-60
2024/04/15 06:30:27;;;;;;;;;;;;;;;24.57;44.36;93890.47;5375863;26;9579;-60
2024/04/15 06:33:04;;;;;;;;;;;;;;;24.53;44.54;93887.22;5376395;26;7376;-60
2024/04/15 06:35:43;;;;;;;;;;;;;;;24.53;44.37;93892.00;5376004;26;7137;-60
2024/04/15 06:38:13;;;;;;;;;;;;;;;24.54;44.39;93893.47;5375718;26;7104;-60
2024/04/15 06:40:43;;;;;;;;;;;;;;;24.59;44.17;93898.19;5375737;26;7212;-60
2024/04/15 06:43:20;;;;;;;;;;;;;;;24.62;43.53;93897.16;5318705;26;7137;-60
2024/04/15 06:46:03;;;;;;;;;;;;;;;24.60;43.63;93900.41;5417834;26;7084;-60
2024/04/15 06:48:29;;;;;;;;;;;;;;;24.56;43.98;93904.72;5449323;26;7056;-60
2024/04/15 06:51:13;;;;;;;;;;;;;;;24.54;43.83;93896.22;5397290;26;7775;-60
2024/04/15 06:53:40;;;;;;;;;;;;;;;24.47;43.79;93891.31;5418736;26;9588;-60
2024/04/15 06:56:32;;;;;;;;;;;;;;;24.54;43.84;93897.00;5437222;26;7683;-60
2024/04/15 06:59:00;;;;;;;;;;;;;;;24.49;43.78;93888.81;5442405;26;7397;-60
2024/04/15 07:01:40;;;;;;;;;;;;;;;24.43;43.68;93879.84;5448544;26;7365;-60
2024/04/15 07:04:10;;;;;;;;;;;;;;;24.49;43.67;93900.53;5449309;26;7377;-60
2024/04/15 07:06:53;;;;;;;;;;;;;;;24.53;43.72;93897.50;5436412;26;6985;-60
2024/04/15 07:09:32;;;;;;;;;;;;;;;24.51;43.78;93903.50;5427410;26;8993;-60
2024/04/15 07:11:58;;;;;;;;;;;;;;;24.47;43.94;93891.31;5419025;26;7321;-60
2024/04/15 07:14:24;;;;;;;;;;;;;;;24.47;43.49;93892.06;5434442;26;7321;-60
2024/04/15 07:16:51;;;;;;;;;;;;;;;24.41;43.59;93883.13;5438477;26;7145;-60
2024/04/15 07:19:22;;;;;;;;;;;;;;;24.51;43.86;93891.78;5449361;26;7172;-60
2024/04/15 07:21:57;;;;;;;;;;;;;;;24.52;43.74;93896.00;5449398;26;7089;-60
2024/04/15 07:24:32;;;;;;;;;;;;;;;24.53;43.85;93898.22;5449265;26;8753;-59
2024/04/15 07:27:24;;;;;;;;;;;;;;;24.52;43.64;93891.25;5446142;26;7072;-59
2024/04/15 07:30:10;;;;;;;;;;;;;;;24.49;43.52;93881.28;5449158;26;7081;-59
2024/04/15 07:32:40;;;;;;;;;;;;;;;24.46;43.44;93879.59;5441419;26;7417;-59
2024/04/15 07:35:42;;;;;;;;;;;;;;;24.53;43.74;93892.00;5417662;26;7544;-59
2024/04/15 07:38:10;;;;;;;;;;;;;;;24.53;43.73;93894.75;5417668;26;8255;-59
2024/04/15 07:40:41;;;;;;;;;;;;;;;24.52;43.77;93898.75;5416557;26;7541;-59
2024/04/15 07:43:13;;;;;;;;;;;;;;;24.53;44.07;93898.22;5446994;26;7297;-60
2024/04/15 07:45:41;;;;;;;;;;;;;;;24.51;43.29;93889.75;5418354;26;7339;-60
2024/04/15 07:48:46;;;;;;;;;;;;;;;24.51;43.45;93887.00;5447119;26;7305;-60
2024/04/15 07:51:12;;;;;;;;;;;;;;;24.48;43.78;93888.06;5446870;26;8063;-60
2024/04/15 07:53:41;;;;;;;;;;;;;;;24.48;43.54;93877.06;5444492;26;9651;-60
2024/04/15 07:56:10;;;;;;;;;;;;;;;24.44;43.90;93876.59;5438177;26;7615;-60
2024/04/15 07:58:54;;;;;;;;;;;;;;;24.53;44.13;93892.72;5448631;26;9394;-59
2024/04/15 08:01:35;;;;;;;;;;;;;;;24.52;43.74;93899.50;5448739;26;7135;-60
2024/04/15 08:04:14;;;;;;;;;;;;;;;24.44;43.42;93904.09;5465960;26;7525;-60
2024/04/15 08:06:41;;;;;;;;;;;;;;;24.53;43.57;93925.72;5448673;26;7047;-60
2024/04/15 08:09:07;;;;;;;;;;;;;;;24.51;43.70;93911.75;5448568;26;6993;-59
2024/04/15 08:11:34;;;;;;;;;;;;;;;24.47;43.70;93907.78;5432831;26;7407;-60
2024/04/15 08:14:02;;;;;;;;;;;;;;;24.53;43.34;93933.25;5439779;26;7985;-60
2024/04/15 08:16:29;;;;;;;;;;;;;;;24.44;43.35;93917.84;5444865;26;7386;-60
2024/04/15 08:18:58;;;;;;;;;;;;;;;24.61;43.10;93929.41;5448390;26;7837;-60
2024/04/15 08:21:33;;;;;;;;;;;;;;;24.58;43.23;93946.19;5457460;26;7707;-60
2024/04/15 08:24:01;;;;;;;;;;;;;;;24.65;43.43;93957.38;5454134;26;7105;-59
2024/04/15 08:27:16;;;;;;;;;;;;;;;24.84;43.12;93997.97;5437355;26;7342;-60
2024/04/15 08:30:05;;;;;;;;;;;;;;;24.91;42.95;93972.63;5307224;26;7315;-59
2024/04/15 08:32:51;;;;;;;;;;;;;;;25.02;42.79;93956.00;5312201;26;7273;-60
2024/04/15 08:35:43;;;;;;;;;;;;;;;25.17;42.68;93943.31;5331111;26;7277;-58
2024/04/15 08:38:16;;;;;;;;;;;;;;;25.31;42.63;93958.69;5336165;26;7664;-57
2024/04/15 08:40:53;;;;;;;;;;;;;;;25.48;42.07;93975.00;5330651;26;7049;-58
2024/04/15 08:43:39;;;;;;;;;;;;;;;25.66;41.92;93988.06;5307355;26;7082;-58
2024/04/15 08:46:38;;;;;;;;;;;;;;;25.81;41.63;93984.84;5277187;26;9109;-58
2024/04/15 08:49:20;;;;;;;;;;;;;;;25.88;41.36;93989.75;5304944;27;7057;-58
2024/04/15 08:52:06;;;;;;;;;;;;;;;25.97;41.26;93995.63;5290833;27;7409;-58
2024/04/15 08:54:46;;;;;;;;;;;;;;;26.10;40.94;94003.22;5270954;27;7426;-58
2024/04/15 08:57:15;;;;;;;;;;;;;;;26.14;40.68;94006.47;5271013;27;7099;-57
2024/04/15 08:59:55;;;;;;;;;;;;;;;26.19;40.53;94002.84;5242227;27;9297;-58
2024/04/15 09:02:24;;;;;;;;;;;;;;;26.22;40.63;93996.31;5270752;27;9702;-58
2024/04/15 09:05:21;;;;;;;;;;;;;;;26.33;40.34;93995.38;5285253;27;7057;-58
2024/04/15 09:07:58;;;;;;;;;;;;;;;26.36;40.40;93988.84;5270554;27;7441;-58
2024/04/15 09:10:40;;;;;;;;;;;;;;;26.33;40.33;93996.13;5270298;27;7319;-58
2024/04/15 09:13:08;;;;;;;;;;;;;;;26.43;39.94;93999.22;5258247;27;7295;-58
2024/04/15 09:15:35;;;;;;;;;;;;;;;26.43;40.09;93988.19;5203948;27;7957;-58
2024/04/15 09:18:13;;;;;;;;;;;;;;;26.44;40.26;94009.75;5230908;27;7537;-58
2024/04/15 09:20:45;;;;;;;;;;;;;;;26.44;39.84;94009.75;5255712;27;7603;-58
2024/04/15 09:23:33;;;;;;;;;;;;;;;26.46;40.02;93987.16;5270625;27;7209;-58
2024/04/15 09:26:18;;;;;;;;;;;;;;;26.53;40.22;93981.03;5261777;27;9467;-58
2024/04/15 09:28:46;;;;;;;;;;;;;;;26.46;40.03;93954.06;5279525;27;7147;-58
2024/04/15 09:31:16;;;;;;;;;;;;;;;26.46;39.85;93948.53;5275847;27;7368;-58
2024/04/15 09:33:42;;;;;;;;;;;;;;;26.53;40.03;93936.91;5294608;27;7114;-58
2024/04/15 09:36:10;;;;;;;;;;;;;;;26.52;39.78;93949.94;5283983;27;7080;-58
2024/04/15 09:38:38;;;;;;;;;;;;;;;26.54;40.00;93961.19;5288877;27;7530;-58
2024/04/15 09:41:14;;;;;;;;;;;;;;;26.51;39.82;93951.19;5271132;27;7436;-58
2024/04/15 09:44:18;;;;;;;;;;;;;;;26.62;39.71;93972.34;5339910;26;7015;-61
2024/04/15 09:47:05;;;;;;;;;;;;;;;26.54;39.49;93958.44;5446674;26;7513;-61
2024/04/15 09:49:50;;;;;;;;;;;;;;;26.57;39.60;93942.84;5438481;26;7707;-61
2024/04/15 09:52:30;;;;;;;;;;;;;;;26.60;39.61;93947.31;5445768;26;7335;-61
2024/04/15 09:55:10;;;;;;;;;;;;;;;26.62;39.90;93951.00;5435513;26;7465;-62
2024/04/15 09:57:43;;;;;;;;;;;;;;;26.64;39.91;93945.69;5408966;26;9108;-61
2024/04/15 10:00:14;;;;;;;;;;;;;;;26.60;40.06;93939.03;5443548;26;7191;-61
2024/04/15 10:02:53;;;;;;;;;;;;;;;26.65;39.59;93922.38;5445493;26;7958;-61
2024/04/15 10:05:30;;;;;;;;;;;;;;;26.64;39.81;93931.91;5435170;26;7095;-61
2024/04/15 10:07:57;;;;;;;;;;;;;;;26.62;39.74;93917.19;5444073;26;7081;-62
2024/04/15 10:10:28;;;;;;;;;;;;;;;26.62;39.66;93904.13;5443308;26;7705;-62
2024/04/15 10:12:59;;;;;;;;;;;;;;;26.61;39.55;93901.91;5448255;26;7718;-61
2024/04/15 10:15:29;;;;;;;;;;;;;;;26.64;39.49;93909.13;5459107;26;7792;-61
2024/04/15 10:18:14;;;;;;;;;;;;;;;26.69;40.02;93908.25;5441656;26;7443;-61
2024/04/15 10:20:43;;;;;;;;;;;;;;;26.61;39.50;93888.09;5413841;26;7013;-61
2024/04/15 10:23:24;;;;;;;;;;;;;;;26.63;39.60;93885.56;5443670;26;7230;-61
2024/04/15 10:25:53;;;;;;;;;;;;;;;26.70;39.99;93885.69;5427187;26;7120;-61
2024/04/15 10:28:19;;;;;;;;;;;;;;;26.65;39.67;93869.97;5420513;26;9631;-61
2024/04/15 10:30:48;;;;;;;;;;;;;;;26.66;39.80;93865.19;5450184;26;8921;-61
2024/04/15 10:33:16;;;;;;;;;;;;;;;26.71;39.84;93887.16;5450179;26;7217;-61
2024/04/15 10:35:56;;;;;;;;;;;;;;;26.70;39.77;93873.91;5419539;26;7262;-61
2024/04/15 10:38:27;;;;;;;;;;;;;;;26.66;39.88;93856.91;5449511;26;7035;-61
2024/04/15 10:40:55;;;;;;;;;;;;;;;26.66;39.79;93851.41;5418565;26;7481;-61
2024/04/15 10:43:24;;;;;;;;;;;;;;;26.66;39.75;93865.94;5447344;26;8127;-61
2024/04/15 10:45:58;;;;;;;;;;;;;;;26.64;39.73;93856.72;5418823;26;7098;-61
2024/04/15 10:48:26;;;;;;;;;;;;;;;26.63;39.81;93852.44;5449429;26;7105;-61
2024/04/15 10:50:54;;;;;;;;;;;;;;;26.61;39.73;93850.22;5441932;26;7351;-61
2024/04/15 10:53:23;;;;;;;;;;;;;;;26.59;40.07;93830.72;5438235;26;7662;-60
2024/04/15 10:56:09;;;;;;;;;;;;;;;26.59;39.90;93827.97;5446653;26;7410;-59
2024/04/15 10:59:06;;;;;;;;;;;;;;;26.51;40.65;93823.59;5449017;26;6993;-60
2024/04/15 11:01:32;;;;;;;;;;;;;;;26.43;40.60;93817.97;5354331;26;7075;-60
2024/04/15 11:04:05;;;;;;;;;;;;;;;26.39;40.75;93814.03;5410580;26;7699;-60
2024/04/15 11:06:33;;;;;;;;;;;;;;;26.38;40.43;93810.53;5384259;26;6901;-59
2024/04/15 11:09:02;;;;;;;;;;;;;;;26.33;40.72;93818.94;5373342;26;7314;-60
2024/04/15 11:11:34;;;;;;;;;;;;;;;26.20;41.01;93805.13;5375195;26;7110;-59
2024/04/15 11:14:03;;;;;;;;;;;;;;;26.17;40.90;93810.44;5397371;26;7062;-59
2024/04/15 11:16:32;;;;;;;;;;;;;;;26.15;41.33;93799.19;5340144;26;7145;-59
2024/04/15 11:19:16;;;;;;;;;;;;;;;26.11;41.38;93798.03;5380496;26;7309;-59
2024/04/15 11:22:12;;;;;;;;;;;;;;;26.06;41.44;93796.06;5365433;26;8100;-59
2024/04/15 11:24:51;;;;;;;;;;;;;;;25.96;41.77;93784.72;5362876;26;8052;-59
2024/04/15 11:27:20;;;;;;;;;;;;;;;25.92;41.60;93789.81;5385809;26;7208;-60
2024/04/15 11:29:50;;;;;;;;;;;;;;;25.89;41.86;93779.84;5381845;26;7253;-59
2024/04/15 11:32:36;;;;;;;;;;;;;;;25.85;41.97;93773.91;5374872;26;7557;-59
2024/04/15 11:35:04;;;;;;;;;;;;;;;25.83;42.16;93764.66;5387437;26;7048;-59
2024/04/15 11:37:31;;;;;;;;;;;;;;;25.78;42.25;93765.50;5388564;26;7298;-59
2024/04/15 11:40:16;;;;;;;;;;;;;;;25.72;42.37;93757.34;5435181;26;7375;-59
2024/04/15 11:42:54;;;;;;;;;;;;;;;25.64;42.18;93750.97;5449105;26;8345;-59
2024/04/15 11:45:32;;;;;;;;;;;;;;;25.66;41.93;93751.19;5417454;26;7340;-58
2024/04/15 11:48:09;;;;;;;;;;;;;;;25.55;42.48;93732.09;5447753;26;9654;-59
2024/04/15 11:51:03;;;;;;;;;;;;;;;25.56;42.35;93736.31;5448600;26;7300;-60
2024/04/15 11:53:31;;;;;;;;;;;;;;;25.40;42.60;93712.56;5430563;26;7349;-60
2024/04/15 11:56:00;;;;;;;;;;;;;;;25.44;42.45;93726.78;5414754;26;7048;-59
2024/04/15 11:58:27;;;;;;;;;;;;;;;25.34;42.71;93706.38;5417055;26;7305;-59
2024/04/15 12:01:04;;;;;;;;;;;;;;;25.26;43.04;93689.75;5442688;26;9059;-59
2024/04/15 12:03:57;;;;;;;;;;;;;;;25.28;42.98;93695.47;5431048;26;7690;-60
2024/04/15 12:06:30;;;;;;;;;;;;;;;25.25;43.42;93685.50;5475946;26;7098;-60
2024/04/15 12:09:05;;;;;;;;;;;;;;;25.15;43.15;93673.41;5448317;26;8591;-60
2024/04/15 12:11:34;;;;;;;;;;;;;;;25.16;43.10;93661.16;5430549;26;7343;-60
2024/04/15 12:14:00;;;;;;;;;;;;;;;25.05;43.21;93655.81;5448793;26;7092;-60
2024/04/15 12:16:26;;;;;;;;;;;;;;;25.09;43.56;93664.50;5447216;26;6971;-60
2024/04/15 12:19:01;;;;;;;;;;;;;;;25.02;43.42;93654.09;5422500;26;7033;-60
2024/04/15 12:21:27;;;;;;;;;;;;;;;25.02;43.46;93650.63;5402394;26;7275;-60
2024/04/15 12:23:56;;;;;;;;;;;;;;;25.03;43.48;93654.84;5448240;26;7388;-60
2024/04/15 12:26:28;;;;;;;;;;;;;;;24.97;43.47;93643.22;5448380;26;7661;-60
2024/04/15 12:29:26;;;;;;;;;;;;;;;24.97;43.63;93638.44;5448483;26;7654;-61
2024/04/15 12:31:56;;;;;;;;;;;;;;;24.92;43.71;93619.28;5407337;26;9922;-59
2024/04/15 12:34:22;;;;;;;;;;;;;;;24.91;43.74;93621.28;5406947;26;7631;-61
2024/04/15 12:36:48;;;;;;;;;;;;;;;24.90;43.57;93610.81;5409263;26;7671;-61
2024/04/15 12:39:24;;;;;;;;;;;;;;;24.91;43.55;93612.28;5409759;26;7343;-61
2024/04/15 12:42:03;;;;;;;;;;;;;;;24.81;43.23;93595.44;5409272;26;7463;-61
2024/04/15 12:44:42;;;;;;;;;;;;;;;24.83;43.70;93597.66;5409400;26;7091;-61
2024/04/15 12:47:13;;;;;;;;;;;;;;;24.78;43.51;93584.72;5408763;26;7111;-61
2024/04/15 12:49:56;;;;;;;;;;;;;;;24.77;43.37;93580.50;5407691;26;9135;-61
2024/04/15 12:52:34;;;;;;;;;;;;;;;24.81;43.04;93578.19;5387840;26;7639;-61
2024/04/15 12:55:09;;;;;;;;;;;;;;;24.77;43.36;93573.00;5401735;26;9406;-61
2024/04/15 12:58:06;;;;;;;;;;;;;;;24.80;43.67;93587.69;5402174;26;7374;-61
2024/04/15 13:00:32;;;;;;;;;;;;;;;24.70;43.70;93574.34;5253313;27;7396;-61
2024/04/15 13:03:01;;;;;;;;;;;;;;;24.82;43.65;93590.66;5251235;27;6999;-61
2024/04/15 13:05:28;;;;;;;;;;;;;;;24.79;43.59;93581.47;5228117;27;7294;-61
2024/04/15 13:07:56;;;;;;;;;;;;;;;24.91;43.58;93590.25;5247631;27;7380;-61
2024/04/15 13:10:23;;;;;;;;;;;;;;;24.89;43.53;93568.03;5274379;27;9063;-61
2024/04/15 13:12:50;;;;;;;;;;;;;;;25.00;43.42;93576.13;5293102;27;8983;-59
2024/04/15 13:15:16;;;;;;;;;;;;;;;25.04;43.06;93595.81;5270930;27;7104;-56
2024/04/15 13:17:42;;;;;;;;;;;;;;;25.13;43.28;93568.63;5289995;27;8946;-56
2024/04/15 13:20:13;;;;;;;;;;;;;;;25.25;43.12;93560.94;5273396;27;9060;-56
2024/04/15 13:22:39;;;;;;;;;;;;;;;25.35;42.71;93545.47;5279316;27;7278;-56
2024/04/15 13:25:06;;;;;;;;;;;;;;;25.51;42.52;93530.69;5281818;27;7540;-56
2024/04/15 13:27:34;;;;;;;;;;;;;;;25.64;42.05;93514.13;5285298;27;7103;-56
2024/04/15 13:30:01;;;;;;;;;;;;;;;25.82;42.13;93527.00;5286240;27;7098;-56
2024/04/15 13:32:30;;;;;;;;;;;;;;;25.88;41.74;93513.13;5261227;27;7400;-55
2024/04/15 13:35:29;;;;;;;;;;;;;;;26.02;41.58;93507.03;5261413;27;7822;-55